sensor_id;sensor_type;location;lat;lon;timestamp;P1;durP1;ratioP1;P2;durP2;ratioP2
55800;SDS011;41730;51.960;20.158;2022-07-25T00:01:55;8.00;;;5.10;;
55800;SDS011;41730;51.960;20.158;2022-07-25T00:04:26;7.60;;;5.20;;
55800;SDS011;41730;51.960;20.158;2022-07-25T00:06:56;7.40;;;4.80;;
55800;SDS011;41730;51.960;20.158;2022-07-25T00:09:26;9.70;;;5.20;;
55800;SDS011;41730;51.960;20.158;2022-07-25T00:11:55;6.90;;;5.10;;
55800;SDS011;41730;51.960;20.158;2022-07-25T00:14:25;7.20;;;4.80;;
55800;SDS011;41730;51.960;20.158;2022-07-25T00:16:54;8.50;;;5.40;;
55800;SDS011;41730;51.960;20.158;2022-07-25T00:19:23;8.20;;;5.90;;
55800;SDS011;41730;51.960;20.158;2022-07-25T00:21:53;7.30;;;5.20;;
55800;SDS011;41730;51.960;20.158;2022-07-25T00:24:22;8.50;;;5.10;;
55800;SDS011;41730;51.960;20.158;2022-07-25T00:26:52;6.20;;;5.20;;
55800;SDS011;41730;51.960;20.158;2022-07-25T00:29:22;8.30;;;5.20;;
55800;SDS011;41730;51.960;20.158;2022-07-25T00:31:52;7.10;;;4.50;;
55800;SDS011;41730;51.960;20.158;2022-07-25T00:34:22;5.40;;;4.00;;
55800;SDS011;41730;51.960;20.158;2022-07-25T00:36:51;5.80;;;4.30;;
55800;SDS011;41730;51.960;20.158;2022-07-25T00:39:20;6.30;;;4.30;;
55800;SDS011;41730;51.960;20.158;2022-07-25T00:41:50;5.50;;;4.20;;
55800;SDS011;41730;51.960;20.158;2022-07-25T00:44:24;6.10;;;4.20;;
55800;SDS011;41730;51.960;20.158;2022-07-25T00:46:56;7.40;;;4.90;;
55800;SDS011;41730;51.960;20.158;2022-07-25T00:49:26;5.30;;;4.30;;
55800;SDS011;41730;51.960;20.158;2022-07-25T00:51:55;7.60;;;5.30;;
55800;SDS011;41730;51.960;20.158;2022-07-25T00:54:25;5.70;;;4.40;;
55800;SDS011;41730;51.960;20.158;2022-07-25T00:56:54;6.30;;;4.50;;
55800;SDS011;41730;51.960;20.158;2022-07-25T00:59:24;5.30;;;4.40;;
55800;SDS011;41730;51.960;20.158;2022-07-25T01:01:54;7.20;;;4.60;;
55800;SDS011;41730;51.960;20.158;2022-07-25T01:04:23;5.10;;;4.10;;
55800;SDS011;41730;51.960;20.158;2022-07-25T01:06:53;7.50;;;4.50;;
55800;SDS011;41730;51.960;20.158;2022-07-25T01:09:23;5.70;;;4.80;;
55800;SDS011;41730;51.960;20.158;2022-07-25T01:11:53;5.90;;;4.50;;
55800;SDS011;41730;51.960;20.158;2022-07-25T01:14:22;5.20;;;4.60;;
55800;SDS011;41730;51.960;20.158;2022-07-25T01:16:52;7.10;;;4.40;;
55800;SDS011;41730;51.960;20.158;2022-07-25T01:19:21;4.90;;;4.40;;
55800;SDS011;41730;51.960;20.158;2022-07-25T01:21:50;5.50;;;4.20;;
55800;SDS011;41730;51.960;20.158;2022-07-25T01:24:21;5.30;;;4.10;;
55800;SDS011;41730;51.960;20.158;2022-07-25T01:26:51;5.80;;;4.50;;
55800;SDS011;41730;51.960;20.158;2022-07-25T01:29:20;5.40;;;4.00;;
55800;SDS011;41730;51.960;20.158;2022-07-25T01:31:49;6.50;;;4.50;;
55800;SDS011;41730;51.960;20.158;2022-07-25T01:34:18;5.30;;;4.30;;
55800;SDS011;41730;51.960;20.158;2022-07-25T01:36:49;5.30;;;4.30;;
55800;SDS011;41730;51.960;20.158;2022-07-25T01:39:18;6.60;;;3.90;;
55800;SDS011;41730;51.960;20.158;2022-07-25T01:41:47;4.90;;;4.40;;
55800;SDS011;41730;51.960;20.158;2022-07-25T01:44:17;7.30;;;4.20;;
55800;SDS011;41730;51.960;20.158;2022-07-25T01:46:46;5.50;;;4.40;;
55800;SDS011;41730;51.960;20.158;2022-07-25T01:49:17;5.50;;;4.70;;
55800;SDS011;41730;51.960;20.158;2022-07-25T01:51:47;8.90;;;4.80;;
55800;SDS011;41730;51.960;20.158;2022-07-25T01:54:17;5.40;;;4.30;;
55800;SDS011;41730;51.960;20.158;2022-07-25T01:56:48;4.80;;;4.00;;
55800;SDS011;41730;51.960;20.158;2022-07-25T01:59:17;4.80;;;4.10;;
55800;SDS011;41730;51.960;20.158;2022-07-25T02:01:47;5.80;;;4.40;;
55800;SDS011;41730;51.960;20.158;2022-07-25T02:04:17;5.70;;;5.10;;
55800;SDS011;41730;51.960;20.158;2022-07-25T02:06:47;6.20;;;5.20;;
55800;SDS011;41730;51.960;20.158;2022-07-25T02:09:16;5.50;;;4.60;;
55800;SDS011;41730;51.960;20.158;2022-07-25T02:11:45;6.50;;;4.70;;
55800;SDS011;41730;51.960;20.158;2022-07-25T02:14:15;7.20;;;4.70;;
55800;SDS011;41730;51.960;20.158;2022-07-25T02:16:44;6.60;;;4.10;;
55800;SDS011;41730;51.960;20.158;2022-07-25T02:19:14;6.80;;;5.10;;
55800;SDS011;41730;51.960;20.158;2022-07-25T02:21:43;6.30;;;4.40;;
55800;SDS011;41730;51.960;20.158;2022-07-25T02:24:13;6.50;;;4.90;;
55800;SDS011;41730;51.960;20.158;2022-07-25T02:26:42;6.90;;;5.00;;
55800;SDS011;41730;51.960;20.158;2022-07-25T02:29:11;5.80;;;4.20;;
55800;SDS011;41730;51.960;20.158;2022-07-25T02:31:40;5.80;;;4.40;;
55800;SDS011;41730;51.960;20.158;2022-07-25T02:34:10;6.80;;;3.90;;
55800;SDS011;41730;51.960;20.158;2022-07-25T02:36:39;6.90;;;4.40;;
55800;SDS011;41730;51.960;20.158;2022-07-25T02:39:09;5.90;;;4.80;;
55800;SDS011;41730;51.960;20.158;2022-07-25T02:41:39;7.70;;;5.20;;
55800;SDS011;41730;51.960;20.158;2022-07-25T02:44:09;5.50;;;4.80;;
55800;SDS011;41730;51.960;20.158;2022-07-25T02:46:38;7.90;;;6.10;;
55800;SDS011;41730;51.960;20.158;2022-07-25T02:49:14;7.10;;;4.80;;
55800;SDS011;41730;51.960;20.158;2022-07-25T02:51:43;5.60;;;4.30;;
55800;SDS011;41730;51.960;20.158;2022-07-25T02:54:13;6.90;;;4.50;;
55800;SDS011;41730;51.960;20.158;2022-07-25T02:56:42;5.90;;;4.90;;
55800;SDS011;41730;51.960;20.158;2022-07-25T02:59:11;7.50;;;5.30;;
55800;SDS011;41730;51.960;20.158;2022-07-25T03:01:41;6.20;;;5.00;;
55800;SDS011;41730;51.960;20.158;2022-07-25T03:04:10;6.20;;;5.60;;
55800;SDS011;41730;51.960;20.158;2022-07-25T03:06:42;7.10;;;5.60;;
55800;SDS011;41730;51.960;20.158;2022-07-25T03:09:12;5.60;;;4.60;;
55800;SDS011;41730;51.960;20.158;2022-07-25T03:11:41;6.60;;;5.30;;
55800;SDS011;41730;51.960;20.158;2022-07-25T03:14:10;6.40;;;5.10;;
55800;SDS011;41730;51.960;20.158;2022-07-25T03:16:39;7.80;;;5.20;;
55800;SDS011;41730;51.960;20.158;2022-07-25T03:19:09;8.70;;;5.80;;
55800;SDS011;41730;51.960;20.158;2022-07-25T03:21:40;6.80;;;5.40;;
55800;SDS011;41730;51.960;20.158;2022-07-25T03:24:09;7.50;;;5.60;;
55800;SDS011;41730;51.960;20.158;2022-07-25T03:26:39;6.10;;;5.50;;
55800;SDS011;41730;51.960;20.158;2022-07-25T03:32:16;8.90;;;4.70;;
55800;SDS011;41730;51.960;20.158;2022-07-25T03:35:11;6.50;;;4.90;;
55800;SDS011;41730;51.960;20.158;2022-07-25T03:38:02;5.90;;;4.40;;
55800;SDS011;41730;51.960;20.158;2022-07-25T03:40:53;6.60;;;4.50;;
55800;SDS011;41730;51.960;20.158;2022-07-25T03:43:41;5.90;;;4.70;;
55800;SDS011;41730;51.960;20.158;2022-07-25T03:46:31;10.50;;;4.50;;
55800;SDS011;41730;51.960;20.158;2022-07-25T03:49:19;5.20;;;3.90;;
55800;SDS011;41730;51.960;20.158;2022-07-25T03:52:08;5.20;;;4.00;;
55800;SDS011;41730;51.960;20.158;2022-07-25T03:55:01;4.60;;;4.00;;
55800;SDS011;41730;51.960;20.158;2022-07-25T03:57:51;6.90;;;4.00;;
55800;SDS011;41730;51.960;20.158;2022-07-25T04:00:42;5.60;;;3.80;;
55800;SDS011;41730;51.960;20.158;2022-07-25T04:03:33;5.20;;;3.90;;
55800;SDS011;41730;51.960;20.158;2022-07-25T04:06:16;4.90;;;4.10;;
55800;SDS011;41730;51.960;20.158;2022-07-25T04:08:46;4.50;;;3.90;;
55800;SDS011;41730;51.960;20.158;2022-07-25T04:11:16;5.40;;;3.90;;
55800;SDS011;41730;51.960;20.158;2022-07-25T04:13:45;5.40;;;4.40;;
55800;SDS011;41730;51.960;20.158;2022-07-25T04:16:15;6.00;;;4.30;;
55800;SDS011;41730;51.960;20.158;2022-07-25T04:21:18;6.20;;;4.00;;
55800;SDS011;41730;51.960;20.158;2022-07-25T04:23:48;4.90;;;4.10;;
55800;SDS011;41730;51.960;20.158;2022-07-25T04:26:19;5.70;;;3.80;;
55800;SDS011;41730;51.960;20.158;2022-07-25T04:28:50;6.90;;;4.20;;
55800;SDS011;41730;51.960;20.158;2022-07-25T04:31:21;5.70;;;4.20;;
55800;SDS011;41730;51.960;20.158;2022-07-25T04:33:56;5.80;;;3.90;;
55800;SDS011;41730;51.960;20.158;2022-07-25T04:36:40;4.30;;;3.60;;
55800;SDS011;41730;51.960;20.158;2022-07-25T04:39:10;5.60;;;3.60;;
55800;SDS011;41730;51.960;20.158;2022-07-25T04:41:40;4.60;;;3.80;;
55800;SDS011;41730;51.960;20.158;2022-07-25T04:44:09;4.10;;;3.60;;
55800;SDS011;41730;51.960;20.158;2022-07-25T04:46:38;6.20;;;4.00;;
55800;SDS011;41730;51.960;20.158;2022-07-25T04:49:08;4.60;;;3.60;;
55800;SDS011;41730;51.960;20.158;2022-07-25T04:51:37;4.80;;;3.80;;
55800;SDS011;41730;51.960;20.158;2022-07-25T04:54:07;4.80;;;3.60;;
55800;SDS011;41730;51.960;20.158;2022-07-25T04:56:36;4.30;;;3.40;;
55800;SDS011;41730;51.960;20.158;2022-07-25T04:59:06;4.20;;;3.70;;
55800;SDS011;41730;51.960;20.158;2022-07-25T05:01:35;4.60;;;3.50;;
55800;SDS011;41730;51.960;20.158;2022-07-25T05:04:04;4.30;;;3.30;;
55800;SDS011;41730;51.960;20.158;2022-07-25T05:06:34;5.90;;;3.60;;
55800;SDS011;41730;51.960;20.158;2022-07-25T05:09:03;4.60;;;3.40;;
55800;SDS011;41730;51.960;20.158;2022-07-25T05:11:33;4.30;;;3.30;;
55800;SDS011;41730;51.960;20.158;2022-07-25T05:14:02;4.20;;;2.90;;
55800;SDS011;41730;51.960;20.158;2022-07-25T05:16:32;4.20;;;3.00;;
55800;SDS011;41730;51.960;20.158;2022-07-25T05:19:02;5.60;;;3.60;;
55800;SDS011;41730;51.960;20.158;2022-07-25T05:21:32;3.90;;;3.30;;
55800;SDS011;41730;51.960;20.158;2022-07-25T05:24:01;3.60;;;2.90;;
55800;SDS011;41730;51.960;20.158;2022-07-25T05:26:31;4.80;;;3.20;;
55800;SDS011;41730;51.960;20.158;2022-07-25T05:29:01;3.60;;;2.90;;
55800;SDS011;41730;51.960;20.158;2022-07-25T05:31:30;4.60;;;2.60;;
55800;SDS011;41730;51.960;20.158;2022-07-25T05:34:00;5.20;;;2.70;;
55800;SDS011;41730;51.960;20.158;2022-07-25T05:36:31;3.50;;;2.80;;
55800;SDS011;41730;51.960;20.158;2022-07-25T05:39:01;3.60;;;2.60;;
55800;SDS011;41730;51.960;20.158;2022-07-25T05:41:31;6.10;;;2.40;;
55800;SDS011;41730;51.960;20.158;2022-07-25T05:44:00;3.10;;;2.70;;
55800;SDS011;41730;51.960;20.158;2022-07-25T05:46:31;3.90;;;2.50;;
55800;SDS011;41730;51.960;20.158;2022-07-25T05:49:02;2.90;;;2.40;;
55800;SDS011;41730;51.960;20.158;2022-07-25T05:51:31;2.80;;;2.00;;
55800;SDS011;41730;51.960;20.158;2022-07-25T05:54:01;2.80;;;2.30;;
55800;SDS011;41730;51.960;20.158;2022-07-25T05:56:31;3.30;;;2.00;;
55800;SDS011;41730;51.960;20.158;2022-07-25T05:59:00;3.60;;;3.10;;
55800;SDS011;41730;51.960;20.158;2022-07-25T06:01:30;3.70;;;3.30;;
55800;SDS011;41730;51.960;20.158;2022-07-25T06:03:59;3.80;;;3.20;;
55800;SDS011;41730;51.960;20.158;2022-07-25T06:06:29;4.20;;;3.20;;
55800;SDS011;41730;51.960;20.158;2022-07-25T06:08:59;5.30;;;3.40;;
55800;SDS011;41730;51.960;20.158;2022-07-25T06:11:39;4.70;;;3.10;;
55800;SDS011;41730;51.960;20.158;2022-07-25T06:14:26;4.70;;;2.80;;
55800;SDS011;41730;51.960;20.158;2022-07-25T06:16:57;3.70;;;2.90;;
55800;SDS011;41730;51.960;20.158;2022-07-25T06:19:26;3.80;;;2.60;;
55800;SDS011;41730;51.960;20.158;2022-07-25T06:21:55;4.30;;;2.60;;
55800;SDS011;41730;51.960;20.158;2022-07-25T06:24:25;3.80;;;2.90;;
55800;SDS011;41730;51.960;20.158;2022-07-25T06:26:55;6.60;;;2.50;;
55800;SDS011;41730;51.960;20.158;2022-07-25T06:29:25;2.90;;;2.50;;
55800;SDS011;41730;51.960;20.158;2022-07-25T06:31:54;5.70;;;2.50;;
55800;SDS011;41730;51.960;20.158;2022-07-25T06:34:32;3.70;;;2.40;;
55800;SDS011;41730;51.960;20.158;2022-07-25T06:44:26;4.90;;;2.80;;
55800;SDS011;41730;51.960;20.158;2022-07-25T06:47:01;4.20;;;2.60;;
55800;SDS011;41730;51.960;20.158;2022-07-25T06:49:42;3.80;;;2.30;;
55800;SDS011;41730;51.960;20.158;2022-07-25T06:52:14;3.00;;;2.20;;
55800;SDS011;41730;51.960;20.158;2022-07-25T06:54:44;3.30;;;2.00;;
55800;SDS011;41730;51.960;20.158;2022-07-25T06:57:14;2.50;;;2.00;;
55800;SDS011;41730;51.960;20.158;2022-07-25T06:59:44;3.20;;;2.60;;
55800;SDS011;41730;51.960;20.158;2022-07-25T07:02:16;3.40;;;2.30;;
55800;SDS011;41730;51.960;20.158;2022-07-25T07:04:46;3.70;;;2.10;;
55800;SDS011;41730;51.960;20.158;2022-07-25T07:07:21;4.60;;;2.40;;
55800;SDS011;41730;51.960;20.158;2022-07-25T07:12:25;5.30;;;2.30;;
55800;SDS011;41730;51.960;20.158;2022-07-25T07:14:54;3.70;;;2.10;;
55800;SDS011;41730;51.960;20.158;2022-07-25T07:17:25;2.50;;;1.50;;
55800;SDS011;41730;51.960;20.158;2022-07-25T07:19:57;3.40;;;2.00;;
55800;SDS011;41730;51.960;20.158;2022-07-25T07:22:27;3.90;;;2.50;;
55800;SDS011;41730;51.960;20.158;2022-07-25T07:24:57;4.10;;;2.10;;
55800;SDS011;41730;51.960;20.158;2022-07-25T07:27:27;3.20;;;2.10;;
55800;SDS011;41730;51.960;20.158;2022-07-25T07:30:00;4.10;;;1.60;;
55800;SDS011;41730;51.960;20.158;2022-07-25T07:32:33;3.80;;;1.80;;
55800;SDS011;41730;51.960;20.158;2022-07-25T07:35:06;2.50;;;1.70;;
55800;SDS011;41730;51.960;20.158;2022-07-25T07:37:38;2.60;;;1.70;;
55800;SDS011;41730;51.960;20.158;2022-07-25T07:40:11;2.40;;;1.70;;
55800;SDS011;41730;51.960;20.158;2022-07-25T07:46:06;2.40;;;1.80;;
55800;SDS011;41730;51.960;20.158;2022-07-25T07:48:45;2.60;;;1.80;;
55800;SDS011;41730;51.960;20.158;2022-07-25T07:52:04;3.60;;;1.80;;
55800;SDS011;41730;51.960;20.158;2022-07-25T07:54:33;2.60;;;1.80;;
55800;SDS011;41730;51.960;20.158;2022-07-25T07:57:25;2.40;;;1.80;;
55800;SDS011;41730;51.960;20.158;2022-07-25T07:59:58;3.20;;;1.80;;
55800;SDS011;41730;51.960;20.158;2022-07-25T08:02:28;2.90;;;1.60;;
55800;SDS011;41730;51.960;20.158;2022-07-25T08:05:18;3.50;;;1.70;;
55800;SDS011;41730;51.960;20.158;2022-07-25T08:09:18;2.80;;;1.70;;
55800;SDS011;41730;51.960;20.158;2022-07-25T08:12:32;2.70;;;1.40;;
55800;SDS011;41730;51.960;20.158;2022-07-25T08:15:07;2.00;;;1.20;;
55800;SDS011;41730;51.960;20.158;2022-07-25T08:17:38;2.80;;;1.70;;
55800;SDS011;41730;51.960;20.158;2022-07-25T08:20:08;2.50;;;1.50;;
55800;SDS011;41730;51.960;20.158;2022-07-25T08:22:59;2.80;;;1.60;;
55800;SDS011;41730;51.960;20.158;2022-07-25T08:25:31;1.90;;;1.40;;
55800;SDS011;41730;51.960;20.158;2022-07-25T08:28:02;2.70;;;1.70;;
55800;SDS011;41730;51.960;20.158;2022-07-25T08:30:33;2.00;;;1.50;;
55800;SDS011;41730;51.960;20.158;2022-07-25T08:33:03;2.50;;;1.70;;
55800;SDS011;41730;51.960;20.158;2022-07-25T08:35:38;2.70;;;1.60;;
55800;SDS011;41730;51.960;20.158;2022-07-25T08:38:12;2.20;;;1.50;;
55800;SDS011;41730;51.960;20.158;2022-07-25T08:40:41;2.00;;;1.50;;
55800;SDS011;41730;51.960;20.158;2022-07-25T08:43:11;2.50;;;1.60;;
55800;SDS011;41730;51.960;20.158;2022-07-25T08:45:42;2.20;;;1.50;;
55800;SDS011;41730;51.960;20.158;2022-07-25T08:48:13;3.90;;;1.90;;
55800;SDS011;41730;51.960;20.158;2022-07-25T08:50:44;2.90;;;1.70;;
55800;SDS011;41730;51.960;20.158;2022-07-25T08:53:14;2.50;;;1.40;;
55800;SDS011;41730;51.960;20.158;2022-07-25T08:56:03;2.60;;;1.40;;
55800;SDS011;41730;51.960;20.158;2022-07-25T08:58:44;2.70;;;1.60;;
55800;SDS011;41730;51.960;20.158;2022-07-25T09:01:14;2.40;;;1.50;;
55800;SDS011;41730;51.960;20.158;2022-07-25T09:03:44;2.20;;;1.50;;
55800;SDS011;41730;51.960;20.158;2022-07-25T09:06:15;3.80;;;1.50;;
55800;SDS011;41730;51.960;20.158;2022-07-25T09:08:56;4.40;;;1.50;;
55800;SDS011;41730;51.960;20.158;2022-07-25T09:11:30;2.10;;;1.30;;
55800;SDS011;41730;51.960;20.158;2022-07-25T09:14:02;2.00;;;1.40;;
55800;SDS011;41730;51.960;20.158;2022-07-25T09:16:37;2.30;;;1.30;;
55800;SDS011;41730;51.960;20.158;2022-07-25T09:19:11;4.00;;;2.40;;
55800;SDS011;41730;51.960;20.158;2022-07-25T09:21:42;2.50;;;1.40;;
55800;SDS011;41730;51.960;20.158;2022-07-25T09:24:26;3.80;;;1.50;;
55800;SDS011;41730;51.960;20.158;2022-07-25T09:26:57;2.60;;;1.60;;
55800;SDS011;41730;51.960;20.158;2022-07-25T09:29:28;2.10;;;1.70;;
55800;SDS011;41730;51.960;20.158;2022-07-25T09:31:59;3.00;;;1.80;;
55800;SDS011;41730;51.960;20.158;2022-07-25T09:34:41;2.30;;;1.70;;
55800;SDS011;41730;51.960;20.158;2022-07-25T09:37:12;2.70;;;1.70;;
55800;SDS011;41730;51.960;20.158;2022-07-25T09:39:43;3.00;;;1.40;;
55800;SDS011;41730;51.960;20.158;2022-07-25T09:42:15;2.30;;;1.80;;
55800;SDS011;41730;51.960;20.158;2022-07-25T09:44:57;2.30;;;1.80;;
55800;SDS011;41730;51.960;20.158;2022-07-25T09:47:29;5.50;;;1.60;;
55800;SDS011;41730;51.960;20.158;2022-07-25T09:49:59;2.50;;;1.60;;
55800;SDS011;41730;51.960;20.158;2022-07-25T09:52:29;4.20;;;1.80;;
55800;SDS011;41730;51.960;20.158;2022-07-25T09:55:01;2.80;;;1.70;;
55800;SDS011;41730;51.960;20.158;2022-07-25T09:57:34;2.30;;;1.60;;
55800;SDS011;41730;51.960;20.158;2022-07-25T10:00:04;3.30;;;1.60;;
55800;SDS011;41730;51.960;20.158;2022-07-25T10:02:40;2.60;;;1.70;;
55800;SDS011;41730;51.960;20.158;2022-07-25T10:05:16;2.90;;;1.90;;
55800;SDS011;41730;51.960;20.158;2022-07-25T10:07:56;6.60;;;2.00;;
55800;SDS011;41730;51.960;20.158;2022-07-25T10:10:31;4.50;;;1.40;;
55800;SDS011;41730;51.960;20.158;2022-07-25T10:13:06;2.90;;;1.90;;
55800;SDS011;41730;51.960;20.158;2022-07-25T10:15:47;2.40;;;1.60;;
55800;SDS011;41730;51.960;20.158;2022-07-25T10:18:19;3.70;;;1.90;;
55800;SDS011;41730;51.960;20.158;2022-07-25T10:20:51;2.60;;;1.70;;
55800;SDS011;41730;51.960;20.158;2022-07-25T10:23:22;3.10;;;1.70;;
55800;SDS011;41730;51.960;20.158;2022-07-25T10:26:01;2.80;;;1.90;;
55800;SDS011;41730;51.960;20.158;2022-07-25T10:28:35;3.10;;;1.80;;
55800;SDS011;41730;51.960;20.158;2022-07-25T10:31:19;3.30;;;2.10;;
55800;SDS011;41730;51.960;20.158;2022-07-25T10:33:51;6.10;;;1.90;;
55800;SDS011;41730;51.960;20.158;2022-07-25T10:36:22;2.30;;;1.50;;
55800;SDS011;41730;51.960;20.158;2022-07-25T10:38:59;2.40;;;1.60;;
55800;SDS011;41730;51.960;20.158;2022-07-25T10:41:29;2.30;;;1.60;;
55800;SDS011;41730;51.960;20.158;2022-07-25T10:44:02;4.00;;;1.80;;
55800;SDS011;41730;51.960;20.158;2022-07-25T10:46:38;2.60;;;1.40;;
55800;SDS011;41730;51.960;20.158;2022-07-25T10:49:16;2.60;;;2.00;;
55800;SDS011;41730;51.960;20.158;2022-07-25T10:51:58;2.60;;;1.70;;
55800;SDS011;41730;51.960;20.158;2022-07-25T10:54:32;2.20;;;1.50;;
55800;SDS011;41730;51.960;20.158;2022-07-25T10:57:03;2.60;;;1.30;;
55800;SDS011;41730;51.960;20.158;2022-07-25T10:59:33;3.70;;;2.10;;
55800;SDS011;41730;51.960;20.158;2022-07-25T11:02:04;2.80;;;1.60;;
55800;SDS011;41730;51.960;20.158;2022-07-25T11:04:42;2.70;;;1.50;;
55800;SDS011;41730;51.960;20.158;2022-07-25T11:07:13;2.60;;;1.50;;
55800;SDS011;41730;51.960;20.158;2022-07-25T11:09:44;2.50;;;1.50;;
55800;SDS011;41730;51.960;20.158;2022-07-25T11:12:24;2.00;;;1.60;;
55800;SDS011;41730;51.960;20.158;2022-07-25T11:14:56;1.70;;;1.30;;
55800;SDS011;41730;51.960;20.158;2022-07-25T11:17:28;2.80;;;1.30;;
55800;SDS011;41730;51.960;20.158;2022-07-25T11:19:59;3.20;;;1.70;;
55800;SDS011;41730;51.960;20.158;2022-07-25T11:22:32;2.90;;;1.40;;
55800;SDS011;41730;51.960;20.158;2022-07-25T11:25:08;2.40;;;1.60;;
55800;SDS011;41730;51.960;20.158;2022-07-25T11:27:39;2.50;;;1.40;;
55800;SDS011;41730;51.960;20.158;2022-07-25T11:30:10;4.10;;;1.90;;
55800;SDS011;41730;51.960;20.158;2022-07-25T11:32:42;4.50;;;1.70;;
55800;SDS011;41730;51.960;20.158;2022-07-25T11:35:13;4.50;;;1.70;;
55800;SDS011;41730;51.960;20.158;2022-07-25T11:40:18;1.90;;;1.40;;
55800;SDS011;41730;51.960;20.158;2022-07-25T11:42:49;2.90;;;1.60;;
55800;SDS011;41730;51.960;20.158;2022-07-25T11:45:19;2.40;;;1.50;;
55800;SDS011;41730;51.960;20.158;2022-07-25T11:48:00;2.50;;;1.50;;
55800;SDS011;41730;51.960;20.158;2022-07-25T11:50:34;3.40;;;1.60;;
55800;SDS011;41730;51.960;20.158;2022-07-25T11:53:05;3.40;;;1.50;;
55800;SDS011;41730;51.960;20.158;2022-07-25T11:55:40;3.50;;;1.40;;
55800;SDS011;41730;51.960;20.158;2022-07-25T11:58:10;3.10;;;1.60;;
55800;SDS011;41730;51.960;20.158;2022-07-25T12:00:41;2.50;;;1.50;;
55800;SDS011;41730;51.960;20.158;2022-07-25T12:03:11;3.00;;;1.50;;
55800;SDS011;41730;51.960;20.158;2022-07-25T12:05:46;3.10;;;1.60;;
55800;SDS011;41730;51.960;20.158;2022-07-25T12:08:17;2.80;;;1.00;;
55800;SDS011;41730;51.960;20.158;2022-07-25T12:10:50;2.10;;;1.60;;
55800;SDS011;41730;51.960;20.158;2022-07-25T12:13:21;2.10;;;1.30;;
55800;SDS011;41730;51.960;20.158;2022-07-25T12:15:52;2.00;;;1.20;;
55800;SDS011;41730;51.960;20.158;2022-07-25T12:18:24;2.70;;;1.50;;
55800;SDS011;41730;51.960;20.158;2022-07-25T12:20:56;2.40;;;1.40;;
55800;SDS011;41730;51.960;20.158;2022-07-25T12:23:26;2.80;;;1.40;;
55800;SDS011;41730;51.960;20.158;2022-07-25T12:25:56;1.90;;;1.20;;
55800;SDS011;41730;51.960;20.158;2022-07-25T12:28:25;3.00;;;1.30;;
55800;SDS011;41730;51.960;20.158;2022-07-25T12:30:55;3.20;;;1.30;;
55800;SDS011;41730;51.960;20.158;2022-07-25T12:33:25;2.10;;;1.40;;
55800;SDS011;41730;51.960;20.158;2022-07-25T12:35:54;2.80;;;1.40;;
55800;SDS011;41730;51.960;20.158;2022-07-25T12:38:24;2.70;;;1.50;;
55800;SDS011;41730;51.960;20.158;2022-07-25T12:40:55;2.70;;;1.30;;
55800;SDS011;41730;51.960;20.158;2022-07-25T12:43:25;3.70;;;1.60;;
55800;SDS011;41730;51.960;20.158;2022-07-25T12:45:55;2.40;;;1.40;;
55800;SDS011;41730;51.960;20.158;2022-07-25T12:48:26;2.00;;;1.40;;
55800;SDS011;41730;51.960;20.158;2022-07-25T12:50:57;2.20;;;1.30;;
55800;SDS011;41730;51.960;20.158;2022-07-25T12:53:26;2.00;;;1.40;;
55800;SDS011;41730;51.960;20.158;2022-07-25T12:55:56;2.20;;;1.20;;
55800;SDS011;41730;51.960;20.158;2022-07-25T12:58:25;3.20;;;1.60;;
55800;SDS011;41730;51.960;20.158;2022-07-25T13:00:57;2.40;;;1.40;;
55800;SDS011;41730;51.960;20.158;2022-07-25T13:03:30;2.50;;;1.50;;
55800;SDS011;41730;51.960;20.158;2022-07-25T13:05:59;3.00;;;1.30;;
55800;SDS011;41730;51.960;20.158;2022-07-25T13:08:31;2.30;;;1.50;;
55800;SDS011;41730;51.960;20.158;2022-07-25T13:11:04;2.30;;;1.40;;
55800;SDS011;41730;51.960;20.158;2022-07-25T13:13:33;3.20;;;1.30;;
55800;SDS011;41730;51.960;20.158;2022-07-25T13:16:04;2.90;;;1.40;;
55800;SDS011;41730;51.960;20.158;2022-07-25T13:18:34;2.70;;;1.30;;
55800;SDS011;41730;51.960;20.158;2022-07-25T13:21:04;3.00;;;1.50;;
55800;SDS011;41730;51.960;20.158;2022-07-25T13:23:33;2.70;;;1.50;;
55800;SDS011;41730;51.960;20.158;2022-07-25T13:26:03;7.00;;;1.60;;
55800;SDS011;41730;51.960;20.158;2022-07-25T13:28:36;1.80;;;1.10;;
55800;SDS011;41730;51.960;20.158;2022-07-25T13:31:06;3.10;;;1.30;;
55800;SDS011;41730;51.960;20.158;2022-07-25T13:33:36;2.80;;;1.50;;
55800;SDS011;41730;51.960;20.158;2022-07-25T13:36:06;2.80;;;1.30;;
55800;SDS011;41730;51.960;20.158;2022-07-25T13:38:38;2.10;;;1.20;;
55800;SDS011;41730;51.960;20.158;2022-07-25T13:41:09;2.50;;;1.40;;
55800;SDS011;41730;51.960;20.158;2022-07-25T13:43:40;2.90;;;1.70;;
55800;SDS011;41730;51.960;20.158;2022-07-25T13:46:10;2.60;;;1.40;;
55800;SDS011;41730;51.960;20.158;2022-07-25T13:48:40;2.40;;;1.60;;
55800;SDS011;41730;51.960;20.158;2022-07-25T13:51:10;2.20;;;1.40;;
55800;SDS011;41730;51.960;20.158;2022-07-25T13:53:39;2.20;;;1.40;;
55800;SDS011;41730;51.960;20.158;2022-07-25T13:56:11;3.20;;;1.50;;
55800;SDS011;41730;51.960;20.158;2022-07-25T13:58:40;2.00;;;1.20;;
55800;SDS011;41730;51.960;20.158;2022-07-25T14:01:14;3.10;;;1.50;;
55800;SDS011;41730;51.960;20.158;2022-07-25T14:03:44;1.90;;;1.30;;
55800;SDS011;41730;51.960;20.158;2022-07-25T14:06:15;1.90;;;1.10;;
55800;SDS011;41730;51.960;20.158;2022-07-25T14:08:45;2.10;;;1.30;;
55800;SDS011;41730;51.960;20.158;2022-07-25T14:11:14;2.20;;;1.40;;
55800;SDS011;41730;51.960;20.158;2022-07-25T14:13:44;3.50;;;1.50;;
55800;SDS011;41730;51.960;20.158;2022-07-25T14:16:14;3.20;;;1.60;;
55800;SDS011;41730;51.960;20.158;2022-07-25T14:18:45;2.40;;;1.30;;
55800;SDS011;41730;51.960;20.158;2022-07-25T14:21:15;3.70;;;1.50;;
55800;SDS011;41730;51.960;20.158;2022-07-25T14:23:46;3.00;;;1.70;;
55800;SDS011;41730;51.960;20.158;2022-07-25T14:26:15;2.80;;;1.10;;
55800;SDS011;41730;51.960;20.158;2022-07-25T14:28:45;2.60;;;1.50;;
55800;SDS011;41730;51.960;20.158;2022-07-25T14:31:15;2.50;;;1.60;;
55800;SDS011;41730;51.960;20.158;2022-07-25T14:33:45;2.20;;;1.40;;
55800;SDS011;41730;51.960;20.158;2022-07-25T14:36:15;3.80;;;1.70;;
55800;SDS011;41730;51.960;20.158;2022-07-25T14:38:45;4.20;;;1.60;;
55800;SDS011;41730;51.960;20.158;2022-07-25T14:41:15;3.30;;;1.80;;
55800;SDS011;41730;51.960;20.158;2022-07-25T14:43:45;3.00;;;1.50;;
55800;SDS011;41730;51.960;20.158;2022-07-25T14:46:14;3.90;;;1.60;;
55800;SDS011;41730;51.960;20.158;2022-07-25T14:48:44;4.30;;;1.30;;
55800;SDS011;41730;51.960;20.158;2022-07-25T14:51:14;2.20;;;1.40;;
55800;SDS011;41730;51.960;20.158;2022-07-25T14:53:44;2.30;;;1.40;;
55800;SDS011;41730;51.960;20.158;2022-07-25T14:56:19;3.00;;;1.40;;
55800;SDS011;41730;51.960;20.158;2022-07-25T15:02:05;4.40;;;1.40;;
55800;SDS011;41730;51.960;20.158;2022-07-25T15:04:35;4.80;;;1.40;;
55800;SDS011;41730;51.960;20.158;2022-07-25T15:07:05;3.30;;;1.50;;
55800;SDS011;41730;51.960;20.158;2022-07-25T15:09:35;2.30;;;1.30;;
55800;SDS011;41730;51.960;20.158;2022-07-25T15:12:05;3.80;;;1.50;;
55800;SDS011;41730;51.960;20.158;2022-07-25T15:14:42;1.90;;;1.30;;
55800;SDS011;41730;51.960;20.158;2022-07-25T15:17:12;3.70;;;1.60;;
55800;SDS011;41730;51.960;20.158;2022-07-25T15:19:41;2.20;;;1.30;;
55800;SDS011;41730;51.960;20.158;2022-07-25T15:22:11;2.10;;;1.40;;
55800;SDS011;41730;51.960;20.158;2022-07-25T15:24:40;2.70;;;1.50;;
55800;SDS011;41730;51.960;20.158;2022-07-25T15:31:37;2.60;;;1.30;;
55800;SDS011;41730;51.960;20.158;2022-07-25T15:38:57;2.40;;;1.30;;